Time;durP1;ratioP1;P1;durP2;ratioP2;P2;SDS_P1;SDS_P2;PMS_P1;PMS_P2;Temp;Humidity;BMP_temperature;BMP_pressure;BME280_temperature;BME280_humidity;BME280_pressure;Samples;Min_cycle;Max_cycle;Signal;HPM_P1;HPM_P2
2021/10/22 00:00:54;;;;;;;7.33;1.37;;;;;;;5.52;92.41;100106.41;4991045;28;20698;-71
2021/10/22 00:03:22;;;;;;;4.37;1.20;;;;;;;5.50;91.58;100107.28;4985018;28;20209;-71
2021/10/22 00:05:49;;;;;;;4.70;0.90;;;;;;;5.52;92.30;100106.41;4986779;28;20268;-72
2021/10/22 00:08:15;;;;;;;2.03;0.87;;;;;;;5.44;92.70;100102.19;4985647;28;20256;-72
2021/10/22 00:10:42;;;;;;;7.93;1.73;;;;;;;5.41;92.87;100115.16;4986961;28;20222;-71
2021/10/22 00:13:10;;;;;;;6.20;1.17;;;;;;;5.40;93.00;100112.56;5000885;28;20224;-72
2021/10/22 00:15:36;;;;;;;3.57;1.13;;;;;;;5.37;93.37;100117.81;4983299;28;20565;-71
2021/10/22 00:18:03;;;;;;;6.37;1.10;;;;;;;5.35;92.71;100120.41;4989107;28;20205;-72
2021/10/22 00:20:31;;;;;;;4.70;1.07;;;;;;;5.32;93.75;100125.63;4989153;28;20217;-73
2021/10/22 00:22:57;;;;;;;4.97;1.50;;;;;;;5.29;94.15;100134.28;4995078;28;20588;-72
2021/10/22 00:25:24;;;;;;;4.93;1.20;;;;;;;5.25;93.88;100148.09;4994381;28;20225;-73
2021/10/22 00:27:50;;;;;;;4.43;1.03;;;;;;;5.17;94.32;100134.41;4994581;28;20255;-73
2021/10/22 00:30:17;;;;;;;4.40;0.80;;;;;;;5.18;93.99;100137.84;4987321;28;20208;-71
2021/10/22 00:32:44;;;;;;;4.70;1.20;;;;;;;5.18;94.14;100143.03;5003880;28;20210;-72
2021/10/22 00:35:10;;;;;;;3.17;0.73;;;;;;;5.24;94.47;100145.53;4988671;28;20232;-71
2021/10/22 00:37:38;;;;;;;6.20;1.20;;;;;;;5.15;93.69;100159.41;4989270;28;20231;-74
2021/10/22 00:40:05;;;;;;;5.00;1.60;;;;;;;5.16;93.81;100150.78;4997040;28;20208;-71
2021/10/22 00:42:33;;;;;;;6.90;1.20;;;;;;;5.13;94.09;100151.66;4986102;28;20198;-71
2021/10/22 00:45:00;;;;;;;4.40;0.97;;;;;;;5.08;94.40;100152.59;5006362;28;20574;-71
2021/10/22 00:47:26;;;;;;;5.13;1.10;;;;;;;5.05;94.39;100156.09;4988010;28;20210;-71
2021/10/22 00:49:53;;;;;;;6.40;1.43;;;;;;;5.03;95.10;100157.84;4985327;28;20213;-74
2021/10/22 00:52:23;;;;;;;2.87;1.17;;;;;;;5.00;94.72;100151.84;4985067;28;20232;-72
2021/10/22 00:54:51;;;;;;;7.87;1.33;;;;;;;4.92;95.11;100155.38;4993562;28;20256;-72
2021/10/22 00:57:17;;;;;;;4.23;1.20;;;;;;;4.93;95.11;100162.22;5011259;28;20235;-73
2021/10/22 00:59:47;;;;;;;7.17;1.20;;;;;;;4.89;95.53;100160.56;4991834;28;20209;-72
2021/10/22 01:02:13;;;;;;;7.17;1.33;;;;;;;4.89;95.04;100160.56;4993178;28;20230;-73
2021/10/22 01:04:41;;;;;;;6.23;1.40;;;;;;;4.86;95.38;100168.34;4991965;28;20216;-70
2021/10/22 01:07:08;;;;;;;5.23;1.43;;;;;;;4.81;95.37;100166.66;4991554;28;20795;-72
2021/10/22 01:09:35;;;;;;;6.43;1.30;;;;;;;4.80;95.62;100168.41;4992170;28;20640;-72
2021/10/22 01:12:04;;;;;;;7.47;1.10;;;;;;;4.77;95.30;100168.44;4991503;28;20720;-72
2021/10/22 01:14:30;;;;;;;5.43;1.30;;;;;;;4.76;95.34;100168.44;4987122;28;20666;-72
2021/10/22 01:16:57;;;;;;;7.03;1.13;;;;;;;4.73;95.34;100167.59;4987569;28;20201;-72
2021/10/22 01:19:23;;;;;;;4.60;1.20;;;;;;;4.67;96.28;100159.91;4987906;28;20204;-72
2021/10/22 01:21:52;;;;;;;8.53;1.53;;;;;;;4.66;95.81;100165.94;4987524;28;20225;-73
2021/10/22 01:24:19;;;;;;;4.63;1.33;;;;;;;4.68;95.87;100163.34;4987791;28;20582;-72
2021/10/22 01:26:46;;;;;;;8.30;1.20;;;;;;;4.66;95.64;100165.06;4990693;28;20316;-72
2021/10/22 01:29:12;;;;;;;4.57;0.90;;;;;;;4.65;95.82;100159.06;4991773;28;20268;-72
2021/10/22 01:31:39;;;;;;;3.47;1.60;;;;;;;4.63;95.80;100155.63;4988726;28;20224;-72
2021/10/22 01:34:05;;;;;;;7.37;1.20;;;;;;;4.64;96.32;100166.81;4992702;28;20970;-72
2021/10/22 01:36:33;;;;;;;5.90;1.50;;;;;;;4.65;95.99;100177.13;4989133;28;20202;-73
2021/10/22 01:39:01;;;;;;;7.40;1.10;;;;;;;4.65;96.09;100174.56;4986002;28;20284;-72
2021/10/22 01:41:27;;;;;;;4.07;1.20;;;;;;;4.59;96.49;100169.47;4993207;28;20224;-72
2021/10/22 01:44:00;;;;;;;3.77;0.93;;;;;;;4.59;97.25;100166.88;4992073;28;20648;-73
2021/10/22 01:46:26;;;;;;;3.73;1.00;;;;;;;4.59;96.88;100163.41;4994833;28;20216;-73
2021/10/22 01:48:53;;;;;;;7.03;1.13;;;;;;;4.56;97.56;100159.16;4990716;28;20645;-72
2021/10/22 01:51:20;;;;;;;2.43;0.93;;;;;;;4.54;97.92;100171.22;5000644;28;20233;-72
2021/10/22 01:53:46;;;;;;;5.47;1.23;;;;;;;4.46;99.09;100168.69;4988779;28;20205;-73
2021/10/22 01:56:14;;;;;;;6.60;1.30;;;;;;;4.38;99.22;100167.91;4997592;28;20649;-71
2021/10/22 01:58:41;;;;;;;6.60;1.00;;;;;;;4.39;99.61;100163.59;4986326;28;20284;-73
2021/10/22 02:01:09;;;;;;;6.10;1.13;;;;;;;4.32;99.85;100167.94;4987134;28;20233;-72
2021/10/22 02:03:35;;;;;;;2.83;1.20;;;;;;;4.32;100.00;100175.69;4985172;28;20707;-71
2021/10/22 02:06:01;;;;;;;7.00;1.13;;;;;;;4.30;100.00;100177.44;4994924;28;20244;-71
2021/10/22 02:08:28;;;;;;;5.30;0.97;;;;;;;4.21;100.00;100188.69;4982234;28;20201;-71
2021/10/22 02:10:54;;;;;;;6.30;1.10;;;;;;;4.20;100.00;100181.78;4987433;28;20702;-73
2021/10/22 02:13:22;;;;;;;2.30;0.80;;;;;;;4.21;100.00;100183.53;4979283;28;20204;-71
2021/10/22 02:15:48;;;;;;;7.13;1.73;;;;;;;4.19;100.00;100182.69;4992599;28;20205;-71
2021/10/22 02:18:15;;;;;;;6.13;1.40;;;;;;;4.13;100.00;100185.28;4994324;28;20200;-72
2021/10/22 02:20:41;;;;;;;6.27;1.30;;;;;;;4.13;100.00;100186.16;4988068;28;20598;-73
2021/10/22 02:23:08;;;;;;;3.17;1.00;;;;;;;4.10;100.00;100180.16;4990186;28;20208;-74
2021/10/22 02:25:35;;;;;;;4.67;1.20;;;;;;;4.06;100.00;100181.88;4989571;28;20206;-72
2021/10/22 02:28:01;;;;;;;4.60;1.10;;;;;;;4.01;100.00;100187.94;4992594;28;20652;-73
2021/10/22 02:30:30;;;;;;;2.67;1.20;;;;;;;3.97;100.00;100190.56;4985969;28;20221;-73
2021/10/22 02:32:56;;;;;;;5.10;1.43;;;;;;;3.92;100.00;100194.91;4985494;28;20202;-71
2021/10/22 02:35:23;;;;;;;7.93;1.37;;;;;;;3.93;100.00;100191.44;4989299;28;20722;-71
2021/10/22 02:37:49;;;;;;;3.27;1.17;;;;;;;3.95;100.00;100196.59;4988338;28;20197;-72
2021/10/22 02:40:16;;;;;;;8.03;1.23;;;;;;;3.90;100.00;100195.75;4989365;28;20197;-71
2021/10/22 02:42:43;;;;;;;6.40;1.30;;;;;;;3.89;100.00;100199.22;4986318;28;20209;-72
2021/10/22 02:45:10;;;;;;;6.57;1.07;;;;;;;3.86;100.00;100205.22;4995493;28;20209;-72
2021/10/22 02:47:38;;;;;;;2.97;1.20;;;;;;;3.90;100.00;100208.66;4987257;28;20248;-72
2021/10/22 02:50:05;;;;;;;7.57;1.00;;;;;;;3.91;100.00;100203.47;4990159;28;20240;-72
2021/10/22 02:52:32;;;;;;;7.63;1.43;;;;;;;3.90;100.00;100201.75;4988643;28;20198;-72
2021/10/22 02:54:58;;;;;;;7.00;1.10;;;;;;;3.92;100.00;100205.22;4988699;28;20722;-72
2021/10/22 02:57:25;;;;;;;10.20;1.30;;;;;;;3.92;100.00;100209.50;4989965;28;20202;-72
2021/10/22 02:59:51;;;;;;;5.97;1.40;;;;;;;3.90;100.00;100212.06;4986315;28;20213;-73
2021/10/22 03:02:18;;;;;;;7.77;1.60;;;;;;;3.92;100.00;100209.50;4987037;28;20216;-72
2021/10/22 03:04:46;;;;;;;13.77;1.70;;;;;;;3.94;100.00;100218.06;4988182;28;20201;-72
2021/10/22 03:07:12;;;;;;;5.43;1.13;;;;;;;3.93;100.00;100209.50;4988621;28;20228;-72
2021/10/22 03:09:39;;;;;;;7.80;1.43;;;;;;;3.94;100.00;100211.22;4988984;28;20204;-71
2021/10/22 03:12:06;;;;;;;6.63;1.30;;;;;;;3.97;100.00;100218.06;4988895;28;20229;-71
2021/10/22 03:14:32;;;;;;;4.90;1.40;;;;;;;3.93;100.00;100221.53;4990901;28;20215;-72
2021/10/22 03:16:59;;;;;;;4.40;1.13;;;;;;;3.95;100.00;100225.81;4995597;28;20208;-72
2021/10/22 03:19:25;;;;;;;5.70;1.53;;;;;;;3.91;100.00;100229.28;4997695;28;20563;-72
2021/10/22 03:21:54;;;;;;;5.77;1.30;;;;;;;3.92;100.00;100228.44;4992567;28;20399;-72
2021/10/22 03:24:20;;;;;;;10.23;1.50;;;;;;;3.93;100.00;100224.97;4987007;28;20291;-73
2021/10/22 03:26:47;;;;;;;6.73;1.40;;;;;;;3.91;100.00;100231.84;4987441;28;20737;-72
2021/10/22 03:29:13;;;;;;;5.93;1.33;;;;;;;3.94;100.00;100236.13;4990419;28;20630;-73
2021/10/22 03:31:39;;;;;;;8.17;1.60;;;;;;;3.92;100.00;100235.28;4986666;28;20229;-71
2021/10/22 03:34:06;;;;;;;5.87;1.23;;;;;;;3.89;100.00;100232.75;4988905;28;20201;-71
2021/10/22 03:36:34;;;;;;;5.93;1.27;;;;;;;3.88;100.00;100231.88;4986911;28;20232;-72
2021/10/22 03:39:02;;;;;;;9.77;1.40;;;;;;;3.95;100.00;100235.28;4986443;28;20216;-71
2021/10/22 03:41:28;;;;;;;5.23;1.30;;;;;;;4.01;100.00;100231.81;4989773;28;20225;-71
2021/10/22 03:43:55;;;;;;;8.23;1.30;;;;;;;4.00;100.00;100235.25;4987433;28;20204;-71
2021/10/22 03:46:21;;;;;;;8.83;2.03;;;;;;;4.03;100.00;100230.94;4994777;28;20703;-71
2021/10/22 03:48:47;;;;;;;8.00;1.20;;;;;;;4.02;100.00;100231.78;4995112;28;20219;-72
2021/10/22 03:51:14;;;;;;;5.73;1.67;;;;;;;4.05;100.00;100243.84;4996866;28;20217;-72
2021/10/22 03:53:40;;;;;;;4.73;1.43;;;;;;;4.06;100.00;100245.53;4991396;28;20607;-71
2021/10/22 03:56:08;;;;;;;5.00;1.30;;;;;;;4.04;100.00;100250.69;4996193;28;20209;-72
2021/10/22 03:58:35;;;;;;;13.73;1.43;;;;;;;4.01;100.00;100250.75;4990503;28;20745;-72
2021/10/22 04:01:01;;;;;;;9.13;1.50;;;;;;;4.02;100.00;100242.13;4994363;28;20641;-72
2021/10/22 04:03:27;;;;;;;10.50;1.37;;;;;;;3.98;100.00;100238.69;4991138;28;20229;-71
2021/10/22 04:05:54;;;;;;;7.50;1.97;;;;;;;3.95;100.00;100241.28;4987200;28;20208;-71
2021/10/22 04:08:21;;;;;;;4.30;1.40;;;;;;;3.97;100.00;100231.84;4980694;28;20217;-72
2021/10/22 04:10:47;;;;;;;5.83;1.60;;;;;;;3.99;100.00;100231.81;4989654;28;20248;-71
2021/10/22 04:13:15;;;;;;;8.03;1.50;;;;;;;4.02;100.00;100230.94;4992429;28;20661;-71
2021/10/22 04:15:42;;;;;;;4.30;1.63;;;;;;;3.95;100.00;100224.97;4988804;28;20574;-72
2021/10/22 04:18:09;;;;;;;7.20;1.57;;;;;;;3.95;100.00;100236.13;4989622;28;20213;-72
2021/10/22 04:20:35;;;;;;;5.57;1.57;;;;;;;3.94;100.00;100234.44;4990197;28;20224;-71
2021/10/22 04:23:02;;;;;;;6.63;1.57;;;;;;;3.92;100.00;100228.44;4990176;28;20232;-72
2021/10/22 04:25:29;;;;;;;7.60;1.30;;;;;;;3.95;100.00;100237.84;4984489;28;20808;-71
2021/10/22 04:27:55;;;;;;;5.50;1.60;;;;;;;3.93;100.00;100235.28;4989331;28;20317;-71
2021/10/22 04:30:23;;;;;;;8.43;1.60;;;;;;;3.93;100.00;100231.84;4996906;28;20231;-71
2021/10/22 04:32:50;;;;;;;6.47;1.30;;;;;;;3.97;100.00;100233.53;4986977;28;20677;-71
2021/10/22 04:35:17;;;;;;;8.03;1.50;;;;;;;4.00;100.00;100238.69;4987997;28;20202;-72
2021/10/22 04:37:48;;;;;;;9.00;1.67;;;;;;;3.97;100.00;100234.41;4990819;28;20198;-71
2021/10/22 04:40:30;;;;;;;4.73;1.13;;;;;;;3.96;100.00;100242.16;4991857;28;20236;-73
2021/10/22 04:42:59;;;;;;;6.40;1.63;;;;;;;3.92;100.00;100236.16;4992336;28;20198;-71
2021/10/22 04:45:27;;;;;;;6.67;1.50;;;;;;;3.90;100.00;100237.03;4989484;28;20205;-71
2021/10/22 04:47:53;;;;;;;7.93;1.83;;;;;;;3.90;100.00;100235.28;4986834;28;20222;-70
2021/10/22 04:50:20;;;;;;;5.53;1.47;;;;;;;3.87;100.00;100235.31;4990263;28;20682;-71
2021/10/22 04:52:53;;;;;;;5.93;1.97;;;;;;;3.82;100.00;100234.50;4991684;28;20216;-72
2021/10/22 04:55:19;;;;;;;4.57;1.30;;;;;;;3.80;100.00;100233.66;4990729;28;20642;-72
2021/10/22 04:57:45;;;;;;;7.77;1.60;;;;;;;3.79;100.00;100242.22;4994131;28;20208;-71
2021/10/22 05:00:13;;;;;;;4.40;1.40;;;;;;;3.79;100.00;100239.66;4989744;28;20718;-71
2021/10/22 05:02:40;;;;;;;4.10;1.40;;;;;;;3.80;100.00;100241.38;4989916;28;20214;-71
2021/10/22 05:05:08;;;;;;;4.83;1.60;;;;;;;3.79;100.00;100235.34;4994248;28;20204;-71
2021/10/22 05:07:34;;;;;;;8.10;1.87;;;;;;;3.78;100.00;100241.38;4989229;28;20224;-71
2021/10/22 05:10:00;;;;;;;10.97;1.67;;;;;;;3.77;100.00;100244.81;4986879;28;20689;-71
2021/10/22 05:12:27;;;;;;;9.23;1.77;;;;;;;3.82;100.00;100242.22;4990443;28;20205;-71
2021/10/22 05:14:53;;;;;;;10.40;1.53;;;;;;;3.82;100.00;100242.22;4989340;28;20324;-72
2021/10/22 05:17:20;;;;;;;11.20;2.13;;;;;;;3.78;100.00;100245.66;4990838;28;20205;-71
2021/10/22 05:19:47;;;;;;;6.50;1.53;;;;;;;3.77;100.00;100246.53;4983774;28;20213;-73
2021/10/22 05:22:14;;;;;;;10.13;1.70;;;;;;;3.77;100.00;100241.38;4989212;28;20582;-71
2021/10/22 05:24:40;;;;;;;7.50;1.70;;;;;;;3.73;100.00;100248.28;4988768;28;20200;-72
2021/10/22 05:27:07;;;;;;;10.27;1.40;;;;;;;3.76;100.00;100253.44;4983715;28;20223;-72
2021/10/22 05:29:33;;;;;;;7.83;2.10;;;;;;;3.76;100.00;100255.13;4991214;28;20204;-71
2021/10/22 05:32:00;;;;;;;5.30;1.40;;;;;;;3.77;100.00;100260.28;5006296;28;20225;-73
2021/10/22 05:34:26;;;;;;;7.63;2.00;;;;;;;3.81;100.00;100262.84;4987534;28;20674;-75
2021/10/22 05:36:54;;;;;;;8.00;1.67;;;;;;;3.82;100.00;100259.41;4988680;28;20674;-73
2021/10/22 05:39:21;;;;;;;8.67;1.63;;;;;;;3.85;100.00;100269.72;4989122;28;20205;-73
2021/10/22 05:41:48;;;;;;;8.53;1.97;;;;;;;3.82;100.00;100262.84;4989845;28;20598;-73
2021/10/22 05:44:17;;;;;;;6.63;1.57;;;;;;;3.85;100.00;100265.41;4990622;28;20558;-73
2021/10/22 05:46:44;;;;;;;6.77;1.53;;;;;;;3.88;100.00;100267.97;4987229;28;20210;-73
2021/10/22 05:49:11;;;;;;;4.97;1.27;;;;;;;3.89;100.00;100264.53;4988222;28;20201;-73
2021/10/22 05:51:37;;;;;;;6.43;1.30;;;;;;;3.87;100.00;100271.44;4995385;28;20227;-74
2021/10/22 05:54:05;;;;;;;5.70;1.17;;;;;;;3.88;100.00;100270.56;4990096;28;20813;-73
2021/10/22 05:56:31;;;;;;;6.53;1.70;;;;;;;3.85;100.00;100270.56;4989753;28;20198;-74
2021/10/22 05:58:58;;;;;;;3.30;1.50;;;;;;;3.86;100.00;100277.44;4991147;28;20207;-73
2021/10/22 06:01:25;;;;;;;11.37;1.97;;;;;;;3.88;100.00;100272.28;4990175;28;20228;-73
2021/10/22 06:03:51;;;;;;;9.57;1.73;;;;;;;3.90;100.00;100284.28;5003473;28;20201;-76
2021/10/22 06:06:18;;;;;;;7.27;1.77;;;;;;;3.91;100.00;100275.72;4985890;28;20299;-74
2021/10/22 06:08:45;;;;;;;4.67;1.50;;;;;;;3.92;100.00;100271.41;4998581;28;20224;-74
2021/10/22 06:11:13;;;;;;;9.40;1.97;;;;;;;3.92;100.00;100281.72;4987925;28;20296;-74
2021/10/22 06:13:41;;;;;;;5.40;1.27;;;;;;;3.88;100.00;100282.59;4991274;28;20224;-75
2021/10/22 06:16:09;;;;;;;9.07;1.70;;;;;;;3.89;100.00;100292.91;4992240;28;20204;-73
2021/10/22 06:18:37;;;;;;;7.40;1.50;;;;;;;3.93;100.00;100296.34;4982061;28;20218;-72
2021/10/22 06:21:06;;;;;;;6.57;1.53;;;;;;;3.95;100.00;100292.88;4990570;28;20221;-71
2021/10/22 06:26:18;;;;;;;5.30;1.70;;;;;;;3.98;100.00;100299.75;4989587;28;20208;-71
2021/10/22 06:28:44;;;;;;;7.80;1.60;;;;;;;4.02;100.00;100295.44;4986113;28;20218;-71
2021/10/22 06:31:12;;;;;;;5.07;1.67;;;;;;;4.07;100.00;100304.88;4996642;28;20217;-71
2021/10/22 06:33:39;;;;;;;6.07;1.70;;;;;;;4.07;100.00;100310.03;4984289;28;20228;-71
2021/10/22 06:36:06;;;;;;;7.97;1.90;;;;;;;4.12;100.00;100300.56;4987966;28;20205;-72
2021/10/22 06:38:32;;;;;;;3.53;1.50;;;;;;;4.19;100.00;100303.97;4991595;28;20193;-71
2021/10/22 06:40:59;;;;;;;7.03;1.50;;;;;;;4.22;100.00;100293.63;4988521;28;20773;-71
2021/10/22 06:43:26;;;;;;;9.80;1.60;;;;;;;4.30;100.00;100304.75;4990686;28;20205;-71
2021/10/22 06:45:53;;;;;;;6.80;1.60;;;;;;;4.33;100.00;100312.47;4983320;28;20204;-72
2021/10/22 06:48:20;;;;;;;9.00;1.63;;;;;;;4.40;100.00;100310.72;4990299;28;20217;-71
2021/10/22 06:50:47;;;;;;;9.80;2.10;;;;;;;4.45;100.00;100308.09;4989329;28;20228;-73
2021/10/22 06:53:14;;;;;;;8.03;1.83;;;;;;;4.50;100.00;100312.41;4986657;28;20295;-72
2021/10/22 06:55:40;;;;;;;7.30;1.83;;;;;;;4.55;100.00;100312.34;4987434;28;20296;-71
2021/10/22 06:58:07;;;;;;;8.63;1.83;;;;;;;4.59;100.00;100314.06;4989975;28;20208;-71
2021/10/22 07:00:36;;;;;;;6.93;1.50;;;;;;;4.67;100.00;100319.16;4984922;28;20229;-72
2021/10/22 07:03:04;;;;;;;12.13;2.00;;;;;;;4.74;100.00;100313.94;4987253;28;20586;-72
2021/10/22 07:05:49;;;;;;;6.07;1.67;;;;;;;4.81;100.00;100322.50;4985784;28;20720;-71
2021/10/22 07:08:15;;;;;;;6.00;1.90;;;;;;;4.91;100.00;100324.16;4988686;28;20667;-71
2021/10/22 07:10:42;;;;;;;6.63;1.80;;;;;;;5.01;99.75;100312.00;4991402;28;20343;-71
2021/10/22 07:13:09;;;;;;;4.50;1.77;;;;;;;5.10;99.21;100329.16;4990650;28;20304;-71
2021/10/22 07:15:37;;;;;;;7.03;2.23;;;;;;;5.15;98.38;100319.66;4990712;28;20213;-71
2021/10/22 07:18:04;;;;;;;10.37;2.00;;;;;;;5.22;98.00;100320.44;4985464;28;20292;-71
2021/10/22 07:20:32;;;;;;;9.27;1.73;;;;;;;5.28;97.03;100323.84;4984419;28;20263;-72
2021/10/22 07:23:03;;;;;;;8.40;2.13;;;;;;;5.38;97.30;100329.81;4989961;28;20209;-72
2021/10/22 07:25:32;;;;;;;6.53;2.07;;;;;;;5.48;97.03;100309.88;4987426;28;21094;-71
2021/10/22 07:28:05;;;;;;;7.83;2.00;;;;;;;5.56;96.77;100318.41;4991078;28;20239;-72
2021/10/22 07:30:31;;;;;;;8.70;1.77;;;;;;;5.63;95.46;100309.72;4984734;28;20222;-71
2021/10/22 07:32:59;;;;;;;9.60;1.70;;;;;;;5.75;95.05;100319.06;4980983;28;20203;-73
2021/10/22 07:35:26;;;;;;;4.33;1.90;;;;;;;5.82;93.60;100312.97;4977924;28;20209;-73
2021/10/22 07:37:53;;;;;;;4.43;1.33;;;;;;;5.87;92.97;100313.75;4988713;28;20204;-75
2021/10/22 07:40:19;;;;;;;5.17;1.80;;;;;;;5.88;93.40;100301.66;4979131;28;20197;-71
2021/10/22 07:42:46;;;;;;;6.20;1.73;;;;;;;5.84;93.05;100308.63;4986003;28;20587;-73
2021/10/22 07:45:12;;;;;;;5.83;1.50;;;;;;;5.82;93.17;100312.06;4986649;28;20673;-73
2021/10/22 07:47:39;;;;;;;3.00;1.33;;;;;;;5.80;93.58;100312.09;4983371;28;20233;-72
2021/10/22 07:50:09;;;;;;;12.47;2.03;;;;;;;5.75;92.90;100310.44;4991930;28;20215;-71
2021/10/22 07:52:36;;;;;;;5.20;1.93;;;;;;;5.77;93.48;100314.75;4987575;28;20217;-71
2021/10/22 07:55:04;;;;;;;8.07;2.03;;;;;;;5.81;92.70;100307.78;4989679;28;20216;-71
2021/10/22 07:57:32;;;;;;;7.57;2.27;;;;;;;5.88;91.87;100314.59;4986753;28;20193;-72
2021/10/22 07:59:59;;;;;;;5.00;2.07;;;;;;;6.03;92.03;100308.41;4985698;28;20209;-74
2021/10/22 08:02:26;;;;;;;7.70;1.93;;;;;;;6.12;90.31;100310.91;4982670;28;20744;-71
2021/10/22 08:04:53;;;;;;;6.47;1.67;;;;;;;6.15;90.52;100299.63;4978577;28;20279;-71
2021/10/22 08:07:26;;;;;;;6.57;1.93;;;;;;;6.19;89.68;100315.13;4987461;28;20207;-71
2021/10/22 08:09:53;;;;;;;4.50;2.10;;;;;;;6.28;90.17;100300.31;4982069;28;20198;-71
2021/10/22 08:12:20;;;;;;;5.70;1.87;;;;;;;6.36;89.94;100317.47;4985429;28;20253;-72
2021/10/22 08:14:47;;;;;;;6.77;2.47;;;;;;;6.35;89.27;100308.00;4987579;28;20201;-71
2021/10/22 08:17:14;;;;;;;8.33;2.20;;;;;;;6.35;88.84;100315.78;4988344;28;20683;-72
2021/10/22 08:19:41;;;;;;;8.90;2.00;;;;;;;6.25;88.46;100327.13;5000261;28;20813;-72
2021/10/22 08:24:54;;;;;;;4.87;1.67;;;;;;;6.24;89.18;100318.50;4984402;28;20212;-74
2021/10/22 08:27:21;;;;;;;9.73;2.10;;;;;;;6.33;88.54;100325.31;4985143;28;20205;-71
2021/10/22 08:29:48;;;;;;;2.73;1.60;;;;;;;6.47;87.87;100321.66;4987167;28;20224;-71
2021/10/22 08:32:15;;;;;;;6.83;1.90;;;;;;;6.58;87.50;100319.78;4985969;28;20264;-72
2021/10/22 08:34:42;;;;;;;2.33;1.40;;;;;;;6.70;86.94;100310.94;4988427;28;20668;-72
2021/10/22 08:37:09;;;;;;;7.10;2.27;;;;;;;6.82;86.06;100301.28;4987910;28;20229;-73
2021/10/22 08:39:38;;;;;;;7.90;2.10;;;;;;;6.86;85.15;100317.63;4990060;28;20313;-71
2021/10/22 08:42:06;;;;;;;5.83;1.83;;;;;;;6.95;85.50;100309.69;4988827;28;20259;-73
2021/10/22 08:44:34;;;;;;;3.67;1.87;;;;;;;7.05;84.02;100322.50;4991071;28;20640;-72
2021/10/22 08:47:02;;;;;;;10.93;2.10;;;;;;;7.16;84.43;100303.28;4994209;28;20206;-72
2021/10/22 08:49:29;;;;;;;6.50;2.53;;;;;;;7.29;84.02;100300.50;4982964;28;20228;-72
2021/10/22 08:51:59;;;;;;;5.17;2.60;;;;;;;7.41;83.67;100317.56;4996193;28;20597;-72
2021/10/22 08:54:25;;;;;;;8.93;2.37;;;;;;;7.48;81.29;100309.66;4999427;28;20234;-72
2021/10/22 08:56:52;;;;;;;7.00;1.93;;;;;;;7.63;82.87;100303.28;4989822;28;20201;-72
2021/10/22 08:59:19;;;;;;;6.00;2.10;;;;;;;7.78;83.03;100308.19;4987792;28;20197;-71
2021/10/22 09:02:12;;;;;;;5.63;2.03;;;;;;;7.95;81.11;100309.63;4983780;28;20236;-71
2021/10/22 09:04:39;;;;;;;5.17;2.33;;;;;;;8.11;81.91;100312.75;4987217;28;20268;-71
2021/10/22 09:07:06;;;;;;;6.10;1.93;;;;;;;8.38;79.68;100318.25;4986596;28;20369;-72
2021/10/22 09:09:33;;;;;;;5.30;1.90;;;;;;;8.49;78.58;100322.31;4987732;28;20222;-72
2021/10/22 09:12:00;;;;;;;4.33;1.90;;;;;;;8.59;77.37;100302.19;4989333;28;20260;-73
2021/10/22 09:14:28;;;;;;;5.33;2.00;;;;;;;8.75;76.86;100318.28;4989480;28;20198;-72
2021/10/22 09:16:55;;;;;;;6.53;2.13;;;;;;;8.82;74.79;100319.00;4987060;28;20236;-72
2021/10/22 09:19:31;;;;;;;6.43;2.33;;;;;;;8.89;74.60;100318.81;4990400;28;20258;-72
2021/10/22 09:22:29;;;;;;;6.33;2.00;;;;;;;9.06;74.71;100310.59;4990164;28;20706;-73
2021/10/22 09:24:58;;;;;;;3.27;1.90;;;;;;;9.27;74.92;100311.81;4984011;28;20311;-73
2021/10/22 09:27:36;;;;;;;8.40;2.10;;;;;;;9.06;72.71;100330.56;4984245;28;20196;-75
2021/10/22 09:30:06;;;;;;;7.07;1.80;;;;;;;8.99;72.74;100314.25;4984947;28;20317;-74
2021/10/22 09:32:33;;;;;;;5.77;2.00;;;;;;;8.96;73.62;100316.06;4986580;28;20202;-75
2021/10/22 09:34:59;;;;;;;5.93;2.30;;;;;;;8.86;72.03;100311.06;4987831;28;20207;-74
2021/10/22 09:37:37;;;;;;;8.23;3.47;;;;;;;8.95;73.08;100311.75;4983552;28;20679;-73
2021/10/22 09:40:05;;;;;;;8.93;2.47;;;;;;;8.96;72.13;100316.06;4987870;28;20600;-73
2021/10/22 09:42:32;;;;;;;7.87;1.83;;;;;;;8.94;71.86;100317.88;4982982;28;20554;-73
2021/10/22 09:44:58;;;;;;;6.27;2.20;;;;;;;8.87;71.06;100320.59;4985428;28;20216;-72
2021/10/22 09:47:25;;;;;;;6.50;2.40;;;;;;;8.97;72.22;100299.56;4986811;28;20243;-73
2021/10/22 09:49:53;;;;;;;7.20;2.47;;;;;;;9.10;71.86;100307.03;4988997;28;20220;-75
2021/10/22 09:52:21;;;;;;;4.40;2.53;;;;;;;9.34;70.84;100304.72;4984809;28;20235;-73
2021/10/22 09:55:03;;;;;;;8.07;2.10;;;;;;;9.47;70.53;100313.03;4986122;28;20640;-75
2021/10/22 09:57:29;;;;;;;7.83;2.40;;;;;;;9.61;71.53;100323.94;4980036;28;20558;-73
2021/10/22 10:00:03;;;;;;;5.87;1.87;;;;;;;9.33;69.31;100297.78;4984360;28;20212;-73
2021/10/22 10:02:31;;;;;;;4.07;2.30;;;;;;;9.38;69.30;100303.72;4986383;28;20251;-74
2021/10/22 10:04:57;;;;;;;5.30;1.60;;;;;;;9.33;69.25;100299.53;4981858;28;20690;-72
2021/10/22 10:07:24;;;;;;;7.70;2.80;;;;;;;9.16;68.49;100311.22;4989926;28;20229;-73
2021/10/22 10:09:54;;;;;;;3.03;1.80;;;;;;;9.16;67.81;100300.81;4987042;28;20689;-73
2021/10/22 10:12:20;;;;;;;5.13;1.43;;;;;;;9.21;69.52;100300.69;4991044;28;20208;-74
2021/10/22 10:14:47;;;;;;;6.33;1.73;;;;;;;9.24;68.97;100295.44;5003987;28;20212;-73
2021/10/22 10:17:15;;;;;;;3.70;1.50;;;;;;;9.31;68.80;100283.97;4985747;28;20204;-73
2021/10/22 10:19:44;;;;;;;5.30;1.97;;;;;;;9.51;70.04;100273.00;4987513;28;20259;-74
2021/10/22 10:22:13;;;;;;;6.70;1.43;;;;;;;9.66;69.62;100292.56;4985919;28;20225;-73
2021/10/22 10:24:42;;;;;;;5.30;1.67;;;;;;;9.62;67.39;100281.41;4985490;28;20212;-73
2021/10/22 10:27:14;;;;;;;4.80;1.60;;;;;;;9.57;66.94;100278.06;4984947;28;20207;-73
2021/10/22 10:29:43;;;;;;;6.40;1.60;;;;;;;9.62;67.05;100277.91;4988529;28;20201;-72
2021/10/22 10:32:12;;;;;;;3.33;1.37;;;;;;;9.68;67.50;100269.09;4984174;28;20614;-73
2021/10/22 10:34:44;;;;;;;4.70;1.60;;;;;;;9.80;68.25;100284.38;4987754;28;20302;-73
2021/10/22 10:37:33;;;;;;;2.57;1.30;;;;;;;9.89;66.18;100267.66;4986101;28;20243;-72
2021/10/22 10:40:10;;;;;;;4.90;1.53;;;;;;;9.83;65.54;100277.34;4987588;28;20622;-73
2021/10/22 10:42:42;;;;;;;4.03;1.60;;;;;;;9.79;65.56;100267.03;4987497;28;20193;-75
2021/10/22 10:45:18;;;;;;;5.20;2.03;;;;;;;9.83;66.53;100268.66;4983407;28;20780;-73
2021/10/22 10:47:47;;;;;;;3.67;1.40;;;;;;;9.86;66.73;100264.22;4980792;28;20248;-74
2021/10/22 10:50:19;;;;;;;4.43;1.40;;;;;;;9.98;67.58;100272.59;4985204;28;20216;-72
2021/10/22 10:52:48;;;;;;;6.70;1.43;;;;;;;9.94;67.16;100260.56;5000655;28;20216;-73
2021/10/22 10:55:19;;;;;;;4.83;1.50;;;;;;;9.85;67.07;100259.91;4986227;28;20211;-74
2021/10/22 10:57:49;;;;;;;4.97;1.37;;;;;;;9.65;66.71;100270.03;4984560;28;20264;-72
2021/10/22 11:00:17;;;;;;;4.17;1.43;;;;;;;9.54;66.02;100278.13;4987768;28;20216;-75
2021/10/22 11:03:11;;;;;;;3.47;1.60;;;;;;;9.71;67.65;100258.59;4986174;28;20213;-72
2021/10/22 11:06:13;;;;;;;4.57;1.20;;;;;;;9.93;67.36;100253.63;4982027;28;20305;-72
2021/10/22 11:08:46;;;;;;;2.57;1.27;;;;;;;10.09;66.44;100252.25;4985489;28;20209;-73
2021/10/22 11:11:26;;;;;;;2.47;1.00;;;;;;;10.12;66.22;100260.00;4987474;28;20220;-72
2021/10/22 11:13:58;;;;;;;5.53;1.67;;;;;;;10.06;65.63;100257.59;4984364;28;20206;-73
2021/10/22 11:16:35;;;;;;;2.97;1.20;;;;;;;10.02;65.60;100264.59;4980395;28;20625;-72
2021/10/22 11:19:04;;;;;;;6.10;1.17;;;;;;;10.07;65.31;100258.44;5001517;28;20241;-73
2021/10/22 11:21:34;;;;;;;5.23;1.60;;;;;;;10.10;65.25;100261.81;4984388;28;20226;-72
2021/10/22 11:24:02;;;;;;;5.07;1.37;;;;;;;10.30;65.93;100237.72;4988135;28;20240;-72
2021/10/22 11:26:29;;;;;;;2.87;1.13;;;;;;;10.38;65.55;100247.97;4980327;28;20205;-74
2021/10/22 11:28:59;;;;;;;5.30;1.20;;;;;;;10.46;64.83;100243.34;4986845;28;20226;-72
2021/10/22 11:31:37;;;;;;;6.20;1.50;;;;;;;10.49;64.87;100242.41;4986973;28;20230;-72
2021/10/22 11:34:05;;;;;;;5.27;1.50;;;;;;;10.40;64.97;100254.81;4984001;28;20211;-72
2021/10/22 11:36:32;;;;;;;3.90;1.60;;;;;;;10.41;65.26;100240.91;4987209;28;20402;-74
2021/10/22 11:38:59;;;;;;;3.20;1.53;;;;;;;10.42;64.99;100237.38;4985698;28;20204;-72